createdAt,value
2022-11-28T00:00:09.833Z,39.72
2022-11-28T00:02:43.760Z,43.05
2022-11-28T00:05:15.100Z,47.13
2022-11-28T00:07:46.333Z,53.00
2022-11-28T00:10:17.027Z,64.45
2022-11-28T00:12:47.595Z,60.90
2022-11-28T00:15:18.124Z,63.22
2022-11-28T00:17:48.968Z,60.13
2022-11-28T00:20:19.836Z,57.28
2022-11-28T00:22:51.019Z,51.90
2022-11-28T00:25:21.211Z,42.58
2022-11-28T00:27:51.944Z,44.20
2022-11-28T00:30:22.644Z,38.70
2022-11-28T00:32:53.018Z,33.35
2022-11-28T00:35:23.663Z,32.38
2022-11-28T00:37:53.740Z,31.40
2022-11-28T00:40:24.040Z,28.80
2022-11-28T00:42:54.509Z,33.13
2022-11-28T00:45:26.318Z,32.70
2022-11-28T00:47:57.067Z,29.38
2022-11-28T00:50:28.081Z,29.45
2022-11-28T00:52:58.941Z,30.92
2022-11-28T00:55:29.370Z,38.95
2022-11-28T00:57:59.968Z,38.45
2022-11-28T01:00:30.454Z,30.30
2022-11-28T01:03:01.466Z,27.80
2022-11-28T01:05:31.980Z,23.88
2022-11-28T01:08:02.711Z,24.83
2022-11-28T01:10:33.362Z,27.13
2022-11-28T01:13:03.487Z,26.38
2022-11-28T01:15:33.542Z,24.25
2022-11-28T01:18:04.312Z,37.13
2022-11-28T01:20:35.205Z,23.02
2022-11-28T01:23:06.474Z,26.50
2022-11-28T01:25:37.723Z,21.50
2022-11-28T01:28:08.422Z,23.08
2022-11-28T01:30:38.931Z,22.98
2022-11-28T01:33:09.407Z,21.13
2022-11-28T01:35:40.354Z,19.38
2022-11-28T01:38:11.437Z,17.73
2022-11-28T01:40:48.201Z,14.95
2022-11-28T01:43:18.931Z,12.95
2022-11-28T01:45:49.520Z,13.82
2022-11-28T01:48:31.237Z,10.90
2022-11-28T01:51:04.938Z,11.23
2022-11-28T01:53:39.984Z,10.23
2022-11-28T01:56:19.955Z,9.65
2022-11-28T01:58:57.379Z,8.50
2022-11-28T02:01:28.571Z,8.90
2022-11-28T02:04:01.520Z,9.45
2022-11-28T02:06:32.867Z,8.77
2022-11-28T02:09:04.087Z,7.35
2022-11-28T02:11:57.080Z,8.05
2022-11-28T02:14:51.726Z,8.00
2022-11-28T02:18:01.305Z,7.70
2022-11-28T02:20:57.193Z,7.40
2022-11-28T02:23:52.501Z,7.90
2022-11-28T02:26:50.266Z,6.82
2022-11-28T02:29:59.823Z,6.75
2022-11-28T02:32:57.055Z,6.85
2022-11-28T02:36:06.984Z,7.25
2022-11-28T02:39:00.874Z,6.47
2022-11-28T02:41:44.389Z,7.15
2022-11-28T02:44:25.098Z,7.28
2022-11-28T02:47:05.192Z,7.07
2022-11-28T02:49:53.364Z,7.07
2022-11-28T02:52:30.140Z,5.80
2022-11-28T02:55:02.629Z,5.68
2022-11-28T02:57:42.448Z,6.15
2022-11-28T03:00:33.697Z,6.07
2022-11-28T03:03:30.555Z,6.35
2022-11-28T03:06:27.795Z,6.32
2022-11-28T03:09:28.253Z,6.57
2022-11-28T03:12:23.171Z,5.55
2022-11-28T03:15:03.813Z,6.80
2022-11-28T03:18:11.227Z,7.43
2022-11-28T03:20:57.226Z,7.13
2022-11-28T03:23:50.631Z,7.30
2022-11-28T03:27:00.436Z,7.28
2022-11-28T03:29:55.711Z,6.65
2022-11-28T03:32:29.433Z,6.22
2022-11-28T03:35:20.070Z,5.90
2022-11-28T03:38:00.021Z,5.38
2022-11-28T03:40:37.993Z,5.22
2022-11-28T03:43:15.653Z,5.88
2022-11-28T03:45:54.828Z,5.55
2022-11-28T03:48:33.405Z,16.73
2022-11-28T03:51:17.349Z,19.10
2022-11-28T03:54:19.030Z,4.78
2022-11-28T03:57:17.271Z,5.70
2022-11-28T03:59:52.296Z,6.00
2022-11-28T04:02:32.860Z,5.13
2022-11-28T04:05:26.015Z,5.68
2022-11-28T04:08:04.954Z,5.80
2022-11-28T04:10:43.664Z,5.82
2022-11-28T04:13:45.582Z,6.00
2022-11-28T04:16:39.954Z,5.80
2022-11-28T04:19:30.071Z,5.20
2022-11-28T04:22:33.750Z,5.40
2022-11-28T04:25:09.731Z,5.22
2022-11-28T04:27:50.264Z,5.20
2022-11-28T04:30:21.513Z,5.97
2022-11-28T04:32:59.402Z,5.00
2022-11-28T04:35:39.358Z,4.97
2022-11-28T04:38:12.574Z,4.50
2022-11-28T04:40:57.158Z,4.60
2022-11-28T04:43:32.864Z,5.10
2022-11-28T04:46:09.550Z,5.00
2022-11-28T04:48:40.769Z,4.90
2022-11-28T04:51:50.150Z,5.57
2022-11-28T04:54:38.634Z,5.43
2022-11-28T04:57:42.205Z,6.57
2022-11-28T05:00:17.080Z,13.10
2022-11-28T05:02:51.893Z,8.02
2022-11-28T05:05:26.116Z,11.77
2022-11-28T05:07:56.812Z,6.25
2022-11-28T05:10:28.052Z,8.63
2022-11-28T05:12:59.152Z,8.20
2022-11-28T05:15:29.381Z,5.85
2022-11-28T05:17:59.928Z,5.70
2022-11-28T05:20:31.299Z,6.15
2022-11-28T05:23:01.765Z,5.93
2022-11-28T05:25:32.668Z,5.97
2022-11-28T05:28:03.823Z,5.70
2022-11-28T05:30:34.289Z,5.80
2022-11-28T05:33:05.259Z,5.95
2022-11-28T05:35:36.203Z,5.75
2022-11-28T05:38:12.183Z,5.38
2022-11-28T05:40:45.921Z,5.47
2022-11-28T05:43:16.732Z,5.22
2022-11-28T05:45:47.869Z,6.05
2022-11-28T05:48:18.115Z,5.60
2022-11-28T05:50:49.047Z,5.72
2022-11-28T05:53:21.524Z,6.00
2022-11-28T05:55:52.288Z,5.80
2022-11-28T05:58:22.857Z,5.70
2022-11-28T06:00:53.458Z,6.00
2022-11-28T06:03:24.621Z,5.63
2022-11-28T06:05:54.870Z,5.78
2022-11-28T06:08:25.033Z,5.90
2022-11-28T06:11:02.737Z,6.10
2022-11-28T06:13:32.883Z,5.70
2022-11-28T06:16:03.878Z,6.43
2022-11-28T06:18:34.131Z,6.25
2022-11-28T06:21:06.212Z,5.57
2022-11-28T06:23:38.069Z,5.22
2022-11-28T06:26:11.279Z,5.82
2022-11-28T06:28:42.156Z,5.60
2022-11-28T06:31:32.121Z,6.00
2022-11-28T06:34:02.495Z,5.22
2022-11-28T06:36:33.299Z,5.00
2022-11-28T06:39:03.465Z,5.05
2022-11-28T06:41:34.422Z,5.38
2022-11-28T06:44:04.884Z,5.15
2022-11-28T06:46:35.317Z,4.65
2022-11-28T06:49:05.717Z,5.82
2022-11-28T06:51:36.196Z,6.28
2022-11-28T06:54:08.179Z,6.13
2022-11-28T06:56:38.213Z,6.35
2022-11-28T06:59:09.018Z,6.70
2022-11-28T07:01:39.867Z,6.30
2022-11-28T07:04:11.995Z,14.75
2022-11-28T07:06:42.795Z,6.68
2022-11-28T07:09:13.128Z,6.68
2022-11-28T07:11:44.276Z,6.13
2022-11-28T07:14:15.165Z,6.50
2022-11-28T07:16:45.895Z,7.03
2022-11-28T07:19:16.680Z,6.00
2022-11-28T07:21:47.523Z,6.00
2022-11-28T07:24:19.181Z,5.90
2022-11-28T07:26:49.882Z,5.50
2022-11-28T07:29:21.554Z,5.50
2022-11-28T07:31:53.262Z,5.60
2022-11-28T07:34:23.885Z,5.93
2022-11-28T07:36:53.992Z,6.38
2022-11-28T07:39:24.100Z,6.00
2022-11-28T07:41:54.599Z,5.50
2022-11-28T07:44:25.679Z,6.20
2022-11-28T07:46:56.154Z,6.10
2022-11-28T07:49:28.006Z,5.68
2022-11-28T07:51:59.023Z,6.70
2022-11-28T07:54:29.553Z,6.22
2022-11-28T07:57:15.130Z,5.55
2022-11-28T07:59:46.058Z,5.80
2022-11-28T08:02:17.338Z,6.50
2022-11-28T08:04:52.719Z,6.15
2022-11-28T08:07:26.143Z,5.70
2022-11-28T08:09:56.625Z,5.90
2022-11-28T08:12:27.472Z,5.43
2022-11-28T08:14:58.072Z,5.90
2022-11-28T08:17:28.585Z,5.68
2022-11-28T08:19:59.689Z,5.50
2022-11-28T08:22:30.730Z,5.30
2022-11-28T08:25:01.665Z,5.95
2022-11-28T08:27:33.994Z,5.90
2022-11-28T08:30:04.895Z,5.65
2022-11-28T08:32:35.423Z,6.30
2022-11-28T08:35:06.232Z,6.20
2022-11-28T08:37:36.996Z,6.30
2022-11-28T08:40:08.920Z,5.90
2022-11-28T08:42:39.825Z,5.90
2022-11-28T08:45:12.651Z,6.50
2022-11-28T08:47:44.208Z,5.97
2022-11-28T08:50:14.992Z,5.78
2022-11-28T08:52:46.175Z,6.22
2022-11-28T08:55:19.028Z,6.10
2022-11-28T08:57:51.502Z,6.10
2022-11-28T09:00:22.725Z,5.40
2022-11-28T09:02:53.688Z,5.68
2022-11-28T09:05:24.193Z,5.65
2022-11-28T09:07:58.054Z,5.50
2022-11-28T09:10:28.896Z,6.18
2022-11-28T09:12:59.200Z,6.30
2022-11-28T09:15:29.542Z,5.18
2022-11-28T09:18:00.232Z,6.65
2022-11-28T09:20:30.306Z,6.80
2022-11-28T09:23:00.723Z,5.80
2022-11-28T09:25:31.360Z,5.65
2022-11-28T09:28:02.841Z,5.88
2022-11-28T09:30:33.321Z,6.00
2022-11-28T09:33:03.845Z,7.15
2022-11-28T09:35:35.164Z,7.88
2022-11-28T09:38:05.606Z,7.60
2022-11-28T09:40:46.289Z,7.35
2022-11-28T09:43:33.102Z,7.47
2022-11-28T09:46:08.023Z,8.27
2022-11-28T09:48:47.678Z,8.02
2022-11-28T09:51:32.698Z,8.60
2022-11-28T09:54:18.768Z,9.25
2022-11-28T09:56:50.893Z,10.77
2022-11-28T09:59:30.757Z,8.55
2022-11-28T10:02:38.236Z,7.95
2022-11-28T10:05:28.928Z,8.10
2022-11-28T10:08:38.446Z,16.88
2022-11-28T10:11:48.183Z,12.65
2022-11-28T10:14:45.073Z,9.82
2022-11-28T10:17:34.727Z,12.40
2022-11-28T10:20:13.752Z,12.10
2022-11-28T10:23:07.144Z,13.32
2022-11-28T10:25:51.652Z,15.25
2022-11-28T10:28:46.197Z,18.67
2022-11-28T10:31:28.858Z,14.35
2022-11-28T10:34:19.085Z,21.00
2022-11-28T10:37:14.390Z,20.30
2022-11-28T10:39:47.657Z,22.02
2022-11-28T10:42:41.628Z,68.57
2022-11-28T10:45:40.857Z,72.75
2022-11-28T10:48:40.419Z,33.60
2022-11-28T10:51:45.289Z,30.83
2022-11-28T10:54:45.769Z,31.27
2022-11-28T10:57:48.586Z,26.15
2022-11-28T11:00:21.390Z,27.33
2022-11-28T11:02:56.357Z,27.83
2022-11-28T11:05:37.960Z,41.22
2022-11-28T11:08:29.077Z,42.13
2022-11-28T11:11:20.718Z,50.28
2022-11-28T11:14:11.563Z,35.47
2022-11-28T11:17:01.880Z,31.40
2022-11-28T11:19:35.612Z,28.80
2022-11-28T11:22:30.652Z,28.15
2022-11-28T11:25:17.318Z,27.65
2022-11-28T11:27:54.002Z,24.75
2022-11-28T11:30:47.514Z,23.08
2022-11-28T11:33:20.241Z,15.13
2022-11-28T11:35:52.151Z,13.85
2022-11-28T11:38:37.452Z,14.88
2022-11-28T11:41:31.127Z,17.45
2022-11-28T11:44:27.579Z,37.72
2022-11-28T11:47:08.992Z,36.30
2022-11-28T11:49:42.925Z,34.67
2022-11-28T11:52:31.943Z,29.90
2022-11-28T11:55:21.177Z,25.27
2022-11-28T11:57:55.867Z,29.55
2022-11-28T12:00:43.346Z,33.08
2022-11-28T12:03:44.116Z,101.95
2022-11-28T12:06:29.169Z,123.40
2022-11-28T12:09:38.142Z,108.07
2022-11-28T12:12:23.721Z,91.15
2022-11-28T12:14:54.771Z,205.32
2022-11-28T12:17:58.582Z,207.95
2022-11-28T12:20:46.603Z,110.22
2022-11-28T12:23:56.214Z,106.82
2022-11-28T12:26:44.858Z,58.00
2022-11-28T12:29:43.537Z,50.47
2022-11-28T12:32:44.805Z,45.72
2022-11-28T12:35:40.567Z,48.50
2022-11-28T12:38:43.164Z,53.85
2022-11-28T12:41:52.505Z,31.50
2022-11-28T12:45:02.072Z,29.55
2022-11-28T12:48:11.358Z,29.80
2022-11-28T12:51:02.254Z,31.40
2022-11-28T12:54:11.551Z,32.78
2022-11-28T12:57:11.659Z,32.95
2022-11-28T13:00:09.714Z,32.88
2022-11-28T13:03:16.785Z,47.58
2022-11-28T13:06:14.897Z,34.47
2022-11-28T13:09:24.145Z,32.47
2022-11-28T13:12:33.546Z,32.30
2022-11-28T13:15:27.664Z,30.67
2022-11-28T13:18:16.941Z,30.92
2022-11-28T13:21:26.337Z,32.13
2022-11-28T13:24:35.911Z,35.20
2022-11-28T13:27:38.873Z,34.97
2022-11-28T13:30:30.656Z,36.33
2022-11-28T13:33:35.290Z,43.50
2022-11-28T13:36:09.660Z,40.83
2022-11-28T13:39:13.054Z,38.70
2022-11-28T13:42:28.388Z,34.97
2022-11-28T13:45:11.689Z,34.80
2022-11-28T13:47:43.697Z,33.83
2022-11-28T13:50:35.573Z,30.30
2022-11-28T13:53:25.832Z,30.25
2022-11-28T13:56:27.959Z,33.38
2022-11-28T13:59:05.005Z,33.20
2022-11-28T14:02:02.333Z,36.75
2022-11-28T14:04:35.586Z,37.05
2022-11-28T14:07:14.814Z,32.88
2022-11-28T14:10:26.029Z,32.83
2022-11-28T14:13:29.781Z,35.38
2022-11-28T14:16:33.318Z,39.95
2022-11-28T14:19:45.635Z,31.42
2022-11-28T14:22:55.694Z,31.33
2022-11-28T14:25:36.838Z,106.30
2022-11-28T14:28:38.268Z,150.27
2022-11-28T14:31:40.484Z,40.40
2022-11-28T14:34:42.490Z,30.48
2022-11-28T14:37:38.167Z,33.20
2022-11-28T14:40:47.386Z,29.60
2022-11-28T14:43:32.978Z,34.05
2022-11-28T14:46:25.333Z,36.58
2022-11-28T14:49:19.413Z,47.22
2022-11-28T14:52:37.187Z,68.80
2022-11-28T14:55:04.559Z,62.08
2022-11-28T14:57:37.879Z,52.08
2022-11-28T15:00:18.148Z,49.00
2022-11-28T15:03:28.948Z,50.63
2022-11-28T15:06:22.988Z,50.60
2022-11-28T15:09:19.971Z,44.92
2022-11-28T15:12:26.246Z,41.97
2022-11-28T15:14:59.798Z,40.67
2022-11-28T15:17:36.167Z,50.25
2022-11-28T15:20:19.176Z,46.15
2022-11-28T15:22:49.821Z,44.13
2022-11-28T15:25:22.833Z,43.42
2022-11-28T15:27:55.650Z,52.33
2022-11-28T15:30:28.187Z,55.80
2022-11-28T15:33:03.507Z,183.68
2022-11-28T15:35:35.021Z,174.60
2022-11-28T15:38:07.218Z,146.90
2022-11-28T15:40:40.096Z,106.80
2022-11-28T15:43:15.407Z,72.00
2022-11-28T15:45:50.071Z,64.50
2022-11-28T15:48:49.087Z,47.05
2022-11-28T15:51:39.035Z,38.88
2022-11-28T15:54:42.619Z,35.95
2022-11-28T15:57:28.646Z,28.65
2022-11-28T15:59:59.755Z,50.40
2022-11-28T16:02:37.072Z,38.00
2022-11-28T16:05:18.028Z,49.38
2022-11-28T16:07:49.179Z,35.75
2022-11-28T16:10:34.581Z,31.38
2022-11-28T16:13:14.571Z,29.75
2022-11-28T16:15:50.668Z,41.13
2022-11-28T16:18:22.138Z,45.05
2022-11-28T16:20:52.908Z,40.05
2022-11-28T16:23:34.528Z,41.58
2022-11-28T16:26:27.266Z,37.63
2022-11-28T16:29:17.479Z,33.25
2022-11-28T16:31:51.147Z,29.15
2022-11-28T16:34:48.602Z,26.30
2022-11-28T16:37:26.272Z,24.92
2022-11-28T16:40:29.655Z,24.13
2022-11-28T16:43:01.167Z,22.73
2022-11-28T16:45:35.416Z,21.25
2022-11-28T16:48:19.297Z,20.85
2022-11-28T16:51:28.828Z,20.58
2022-11-28T16:54:01.438Z,20.88
2022-11-28T16:56:48.189Z,19.88
2022-11-28T16:59:22.728Z,19.50
2022-11-28T17:01:56.750Z,19.48
2022-11-28T17:04:32.155Z,19.38
2022-11-28T17:07:07.232Z,18.13
2022-11-28T17:09:38.305Z,19.42
2022-11-28T17:12:40.447Z,18.10
2022-11-28T17:15:18.148Z,18.52
2022-11-28T17:17:49.653Z,18.02
2022-11-28T17:20:19.874Z,18.92
2022-11-28T17:22:52.633Z,19.38
2022-11-28T17:25:23.665Z,19.45
2022-11-28T17:27:54.565Z,18.65
2022-11-28T17:30:24.524Z,19.77
2022-11-28T17:32:54.737Z,18.92
2022-11-28T17:35:26.636Z,17.73
2022-11-28T17:37:56.956Z,18.08
2022-11-28T17:40:38.460Z,22.60
2022-11-28T17:43:09.494Z,17.40
2022-11-28T17:45:41.565Z,17.70
2022-11-28T17:48:15.319Z,17.23
2022-11-28T17:50:47.831Z,16.73
2022-11-28T17:53:21.495Z,16.65
2022-11-28T17:56:01.029Z,16.95
2022-11-28T17:58:32.180Z,17.45
2022-11-28T18:01:03.377Z,16.63
2022-11-28T18:03:33.592Z,16.50
2022-11-28T18:06:06.818Z,17.58
2022-11-28T18:08:37.194Z,17.13
2022-11-28T18:11:10.412Z,17.17
2022-11-28T18:13:43.922Z,17.00
2022-11-28T18:16:16.464Z,15.57
2022-11-28T18:18:47.724Z,16.42
2022-11-28T18:21:18.749Z,16.38
2022-11-28T18:23:52.118Z,16.65
2022-11-28T18:26:26.673Z,15.07
2022-11-28T18:28:57.767Z,15.60
2022-11-28T18:31:31.451Z,16.40
2022-11-28T18:34:05.864Z,15.77
2022-11-28T18:36:39.099Z,17.52
2022-11-28T18:39:16.638Z,15.35
2022-11-28T18:41:47.644Z,15.95
2022-11-28T18:44:18.283Z,16.50
2022-11-28T18:46:49.040Z,14.38
2022-11-28T18:49:21.176Z,16.48
2022-11-28T18:51:52.182Z,17.67
2022-11-28T18:54:23.327Z,16.25
2022-11-28T18:56:55.579Z,16.17
2022-11-28T18:59:26.505Z,17.63
2022-11-28T19:01:56.689Z,17.63
2022-11-28T19:04:27.452Z,18.70
2022-11-28T19:06:59.357Z,20.45
2022-11-28T19:09:30.550Z,19.83
2022-11-28T19:12:02.049Z,18.25
2022-11-28T19:14:32.818Z,18.40
2022-11-28T19:17:03.960Z,18.00
2022-11-28T19:19:34.512Z,18.05
2022-11-28T19:22:06.120Z,16.83
2022-11-28T19:24:37.226Z,18.20
2022-11-28T19:27:12.490Z,17.48
2022-11-28T19:29:45.582Z,19.25
2022-11-28T19:32:18.581Z,16.58
2022-11-28T19:34:53.712Z,16.75
2022-11-28T19:37:24.932Z,17.85
2022-11-28T19:39:58.576Z,17.35
2022-11-28T19:42:32.544Z,17.65
2022-11-28T19:45:02.989Z,18.70
2022-11-28T19:47:33.590Z,17.75
2022-11-28T19:50:04.178Z,17.02
2022-11-28T19:52:35.062Z,16.25
2022-11-28T19:55:05.516Z,15.90
2022-11-28T19:57:40.227Z,18.15
2022-11-28T20:00:11.676Z,17.65
2022-11-28T20:02:44.719Z,18.55
2022-11-28T20:05:15.637Z,17.77
2022-11-28T20:07:46.623Z,18.60
2022-11-28T20:10:17.511Z,19.13
2022-11-28T20:12:48.238Z,18.45
2022-11-28T20:15:19.156Z,20.30
2022-11-28T20:17:50.741Z,19.98
2022-11-28T20:20:21.360Z,19.35
2022-11-28T20:22:51.510Z,19.40
2022-11-28T20:25:22.586Z,18.65
2022-11-28T20:27:54.392Z,19.05
2022-11-28T20:30:25.544Z,18.67
2022-11-28T20:32:56.940Z,18.92
2022-11-28T20:35:28.902Z,19.95
2022-11-28T20:37:59.948Z,17.52
2022-11-28T20:40:30.339Z,17.02
2022-11-28T20:43:00.871Z,19.52
2022-11-28T20:45:31.645Z,18.25
2022-11-28T20:48:03.305Z,19.48
2022-11-28T20:50:33.805Z,19.63
2022-11-28T20:53:04.777Z,17.35
2022-11-28T20:55:34.921Z,16.35
2022-11-28T20:58:05.096Z,17.40
2022-11-28T21:00:35.586Z,19.25
2022-11-28T21:03:06.768Z,18.55
2022-11-28T21:05:40.387Z,18.77
2022-11-28T21:08:11.261Z,21.92
2022-11-28T21:10:42.173Z,20.50
2022-11-28T21:13:12.473Z,18.35
2022-11-28T21:15:50.155Z,20.20
2022-11-28T21:18:20.362Z,21.65
2022-11-28T21:20:50.510Z,23.58
2022-11-28T21:23:20.575Z,22.98
2022-11-28T21:25:51.310Z,25.80
2022-11-28T21:28:24.448Z,24.73
2022-11-28T21:30:54.598Z,26.27
2022-11-28T21:33:24.967Z,24.98
2022-11-28T21:36:01.153Z,23.35
2022-11-28T21:38:32.396Z,25.70
2022-11-28T21:41:03.178Z,27.17
2022-11-28T21:43:34.876Z,25.30
2022-11-28T21:46:07.794Z,23.65
2022-11-28T21:48:39.066Z,23.90
2022-11-28T21:51:09.518Z,25.45
2022-11-28T21:53:40.355Z,26.35
2022-11-28T21:56:12.853Z,28.88
2022-11-28T21:58:43.412Z,29.60
2022-11-28T22:01:15.624Z,32.30
2022-11-28T22:03:46.353Z,31.35
2022-11-28T22:06:23.704Z,30.08
2022-11-28T22:08:54.873Z,29.67
2022-11-28T22:11:25.907Z,29.35
2022-11-28T22:13:56.071Z,31.65
2022-11-28T22:16:29.996Z,33.05
2022-11-28T22:19:02.790Z,32.38
2022-11-28T22:24:26.428Z,29.65
2022-11-28T22:26:58.262Z,28.45
2022-11-28T22:29:29.381Z,28.23
2022-11-28T22:32:00.631Z,28.73
2022-11-28T22:34:34.553Z,144.65
2022-11-28T22:37:07.462Z,331.95
2022-11-28T22:39:40.431Z,65.85
2022-11-28T22:42:11.934Z,34.22
2022-11-28T22:44:42.577Z,31.45
2022-11-28T22:47:13.042Z,28.25
2022-11-28T22:49:44.217Z,29.48
2022-11-28T22:52:15.849Z,31.45
2022-11-28T22:54:46.342Z,28.98
2022-11-28T22:57:16.998Z,33.33
2022-11-28T22:59:47.519Z,31.33
2022-11-28T23:02:18.177Z,31.45
2022-11-28T23:04:49.253Z,30.55
2022-11-28T23:07:19.830Z,30.38
2022-11-28T23:09:52.975Z,32.13
2022-11-28T23:12:23.463Z,33.58
2022-11-28T23:14:53.630Z,33.80
2022-11-28T23:17:24.562Z,31.27
2022-11-28T23:19:55.343Z,31.92
2022-11-28T23:22:26.174Z,52.63
2022-11-28T23:24:56.695Z,41.95
2022-11-28T23:27:27.636Z,61.28
2022-11-28T23:29:58.099Z,31.85
2022-11-28T23:32:29.457Z,50.30
2022-11-28T23:35:01.599Z,49.03
2022-11-28T23:37:32.137Z,34.05
2022-11-28T23:40:02.296Z,34.63
2022-11-28T23:42:32.757Z,33.75
2022-11-28T23:45:03.492Z,34.05
2022-11-28T23:47:34.103Z,33.70
2022-11-28T23:50:04.233Z,39.70
2022-11-28T23:52:34.398Z,31.08
2022-11-28T23:55:05.291Z,31.23
2022-11-28T23:57:35.506Z,31.80
